This is the latest recevied weather packets stored in our database for station/object HA6IFZ-10. If no packets are shown the sender has not sent any weather packets the latest 10 day(s).
| Time | Temp. | Humidity | Pressure | Rain* | Wind** | Luminosity | Snow |
|---|---|---|---|---|---|---|---|
| 1788163396 | 30.56° C | 27% | 1024.6 hPa | - | - | - | - |
| 1788162496 | 30.56° C | 27% | 1024.6 hPa | - | - | - | - |
| 1788161596 | 30.56° C | 27% | 1024.5 hPa | - | - | - | - |
| 1788160696 | 30.56° C | 27% | 1024.5 hPa | - | - | - | - |
| 1788159796 | 30° C | 29% | 1024.6 hPa | - | - | - | - |
| 1788158896 | 30° C | 27% | 1024.5 hPa | - | - | - | - |
| 1788157996 | 30° C | 29% | 1024.6 hPa | - | - | - | - |
| 1788157096 | 28.89° C | 30% | 1024.5 hPa | - | - | - | - |
| 1788156195 | 35.56° C | 21% | 1024.5 hPa | - | - | - | - |
| 1788155295 | 35.56° C | 22% | 1024.5 hPa | - | - | - | - |
| 1788154394 | 33.33° C | 25% | 1024.5 hPa | - | - | - | - |
| 1788153494 | 32.78° C | 26% | 1024.4 hPa | - | - | - | - |
| 1788151697 | 26.67° C | 35% | 1024.4 hPa | - | - | - | - |
| 1788150797 | 23.89° C | 42% | 1024.3 hPa | - | - | - | - |
| 1788149896 | 21.11° C | 50% | 1024.3 hPa | - | - | - | - |
| 1788148996 | 19.44° C | 55% | 1024.3 hPa | - | - | - | - |
| 1788148096 | 19.44° C | 55% | 1024.4 hPa | - | - | - | - |
| 1788147196 | 19.44° C | 56% | 1024.4 hPa | - | - | - | - |
| 1788146296 | 19.44° C | 56% | 1024.3 hPa | - | - | - | - |
| 1788145396 | 18.89° C | 57% | 1024.3 hPa | - | - | - | - |
| 1788144496 | 18.89° C | 59% | 1024.4 hPa | - | - | - | - |
| 1788143596 | 19.44° C | 56% | 1024.5 hPa | - | - | - | - |
| 1788142696 | 18.89° C | 57% | 1024.7 hPa | - | - | - | - |
| 1788141796 | 18.89° C | 57% | 1024.6 hPa | - | - | - | - |
| 1788140895 | 19.44° C | 53% | 1024.6 hPa | - | - | - | - |
* Rain since midnight (hover to see other rain measurements)
** Current wind speed in m/s (hover to see current wind gust speed)